sensor_id;sensor_type;location;lat;lon;timestamp;pressure;altitude;pressure_sealevel;temperature;humidity
52249;BME280;38541;48.130;8.378;2023-01-28T00:01:20;92979.16;;;-2.57;80.40
52249;BME280;38541;48.130;8.378;2023-01-28T00:03:50;92972.84;;;-2.69;80.39
52249;BME280;38541;48.130;8.378;2023-01-28T00:06:18;92976.59;;;-2.72;80.84
52249;BME280;38541;48.130;8.378;2023-01-28T00:08:44;92974.75;;;-2.63;81.36
52249;BME280;38541;48.130;8.378;2023-01-28T00:11:12;92979.53;;;-2.60;80.83
52249;BME280;38541;48.130;8.378;2023-01-28T00:13:39;92975.25;;;-2.68;80.59
52249;BME280;38541;48.130;8.378;2023-01-28T00:16:06;92975.53;;;-2.63;81.27
52249;BME280;38541;48.130;8.378;2023-01-28T00:18:37;92975.53;;;-2.63;81.45
52249;BME280;38541;48.130;8.378;2023-01-28T00:21:11;92974.00;;;-2.72;81.11
52249;BME280;38541;48.130;8.378;2023-01-28T00:23:39;92969.75;;;-2.65;81.32
52249;BME280;38541;48.130;8.378;2023-01-28T00:26:09;92970.38;;;-2.63;80.85
52249;BME280;38541;48.130;8.378;2023-01-28T00:28:39;92984.31;;;-2.57;81.29
52249;BME280;38541;48.130;8.378;2023-01-28T00:31:13;92972.34;;;-2.50;81.13
52249;BME280;38541;48.130;8.378;2023-01-28T00:33:43;92969.34;;;-2.53;80.91
52249;BME280;38541;48.130;8.378;2023-01-28T00:36:10;92969.50;;;-2.55;80.97
52249;BME280;38541;48.130;8.378;2023-01-28T00:38:37;92971.72;;;-2.52;81.01
52249;BME280;38541;48.130;8.378;2023-01-28T00:41:12;92970.75;;;-2.51;80.85
52249;BME280;38541;48.130;8.378;2023-01-28T00:43:40;92974.81;;;-2.56;80.35
52249;BME280;38541;48.130;8.378;2023-01-28T00:46:08;92965.22;;;-2.63;80.69
52249;BME280;38541;48.130;8.378;2023-01-28T00:48:36;92968.53;;;-2.54;80.97
52249;BME280;38541;48.130;8.378;2023-01-28T00:51:05;92963.38;;;-2.54;80.89
52249;BME280;38541;48.130;8.378;2023-01-28T00:53:32;92962.75;;;-2.56;80.70
52249;BME280;38541;48.130;8.378;2023-01-28T00:56:00;92967.19;;;-2.50;80.90
52249;BME280;38541;48.130;8.378;2023-01-28T00:58:26;92968.53;;;-2.54;80.25
52249;BME280;38541;48.130;8.378;2023-01-28T01:00:53;92956.03;;;-2.57;80.56
52249;BME280;38541;48.130;8.378;2023-01-28T01:03:19;92955.84;;;-2.55;80.15
52249;BME280;38541;48.130;8.378;2023-01-28T01:05:46;92946.88;;;-2.60;80.24
52249;BME280;38541;48.130;8.378;2023-01-28T01:08:13;92946.00;;;-2.67;80.19
52249;BME280;38541;48.130;8.378;2023-01-28T01:10:39;92951.50;;;-2.70;81.00
52249;BME280;38541;48.130;8.378;2023-01-28T01:13:06;92947.31;;;-2.71;81.13
52249;BME280;38541;48.130;8.378;2023-01-28T01:15:33;92947.03;;;-2.76;81.08
52249;BME280;38541;48.130;8.378;2023-01-28T01:18:01;92955.59;;;-2.99;81.47
52249;BME280;38541;48.130;8.378;2023-01-28T01:20:28;92945.06;;;-2.89;83.39
52249;BME280;38541;48.130;8.378;2023-01-28T01:22:58;92944.81;;;-2.79;82.99
52249;BME280;38541;48.130;8.378;2023-01-28T01:25:25;92945.44;;;-2.77;82.58
52249;BME280;38541;48.130;8.378;2023-01-28T01:27:51;92941.72;;;-2.75;81.92
52249;BME280;38541;48.130;8.378;2023-01-28T01:30:18;92947.44;;;-2.64;82.00
52249;BME280;38541;48.130;8.378;2023-01-28T01:32:46;92956.38;;;-2.60;81.66
52249;BME280;38541;48.130;8.378;2023-01-28T01:35:12;92958.34;;;-2.62;80.76
52249;BME280;38541;48.130;8.378;2023-01-28T01:37:42;92960.44;;;-2.66;81.34
52249;BME280;38541;48.130;8.378;2023-01-28T01:40:10;92960.44;;;-2.66;81.01
52249;BME280;38541;48.130;8.378;2023-01-28T01:42:37;92963.78;;;-2.80;80.94
52249;BME280;38541;48.130;8.378;2023-01-28T01:45:06;92969.03;;;-2.74;81.00
52249;BME280;38541;48.130;8.378;2023-01-28T01:50:19;92975.25;;;-2.68;81.52
52249;BME280;38541;48.130;8.378;2023-01-28T01:52:50;92972.31;;;-2.65;81.08
52249;BME280;38541;48.130;8.378;2023-01-28T01:55:21;92968.44;;;-2.61;81.26
52249;BME280;38541;48.130;8.378;2023-01-28T01:57:50;92968.78;;;-2.64;80.95
52249;BME280;38541;48.130;8.378;2023-01-28T02:00:22;92972.66;;;-2.83;81.32
52249;BME280;38541;48.130;8.378;2023-01-28T02:02:50;92969.91;;;-2.81;81.82
52249;BME280;38541;48.130;8.378;2023-01-28T02:05:19;92977.00;;;-2.68;82.57
52249;BME280;38541;48.130;8.378;2023-01-28T02:07:51;92975.00;;;-2.73;81.29
52249;BME280;38541;48.130;8.378;2023-01-28T02:10:21;92971.50;;;-2.80;81.23
52249;BME280;38541;48.130;8.378;2023-01-28T02:12:54;92978.22;;;-2.79;81.92
52249;BME280;38541;48.130;8.378;2023-01-28T02:15:25;92968.50;;;-2.69;81.94
52249;BME280;38541;48.130;8.378;2023-01-28T02:17:52;92977.63;;;-2.66;81.78
52249;BME280;38541;48.130;8.378;2023-01-28T02:20:24;92977.72;;;-2.75;80.79
52249;BME280;38541;48.130;8.378;2023-01-28T02:23:06;92976.59;;;-2.72;81.32
52249;BME280;38541;48.130;8.378;2023-01-28T02:32:16;92980.84;;;-2.64;80.90
52249;BME280;38541;48.130;8.378;2023-01-28T02:34:50;92975.25;;;-2.68;80.50
52249;BME280;38541;48.130;8.378;2023-01-28T02:37:42;92975.41;;;-2.69;81.18
52249;BME280;38541;48.130;8.378;2023-01-28T02:40:17;92971.53;;;-2.65;81.25
52249;BME280;38541;48.130;8.378;2023-01-28T02:42:45;92974.91;;;-2.65;80.88
52249;BME280;38541;48.130;8.378;2023-01-28T02:45:25;92977.47;;;-2.65;80.81
52249;BME280;38541;48.130;8.378;2023-01-28T02:48:13;92980.31;;;-2.60;81.06
52249;BME280;38541;48.130;8.378;2023-01-28T02:51:00;92980.66;;;-2.63;80.67
52249;BME280;38541;48.130;8.378;2023-01-28T02:53:35;92981.56;;;-2.55;81.06
52249;BME280;38541;48.130;8.378;2023-01-28T02:59:00;92977.06;;;-2.53;80.75
52249;BME280;38541;48.130;8.378;2023-01-28T03:01:52;92978.66;;;-2.52;80.71
52249;BME280;38541;48.130;8.378;2023-01-28T03:04:28;92975.09;;;-2.51;80.53
52249;BME280;38541;48.130;8.378;2023-01-28T03:06:59;92979.41;;;-2.67;80.19
52249;BME280;38541;48.130;8.378;2023-01-28T03:09:29;92983.94;;;-2.69;80.71
52249;BME280;38541;48.130;8.378;2023-01-28T03:12:12;92986.63;;;-2.62;81.14
52249;BME280;38541;48.130;8.378;2023-01-28T03:15:18;92984.03;;;-2.62;80.95
52249;BME280;38541;48.130;8.378;2023-01-28T03:18:17;92988.31;;;-2.54;80.65
52249;BME280;38541;48.130;8.378;2023-01-28T03:21:08;92989.56;;;-2.50;80.38
52249;BME280;38541;48.130;8.378;2023-01-28T03:24:11;92986.38;;;-2.52;80.32
52249;BME280;38541;48.130;8.378;2023-01-28T03:27:22;92995.38;;;-2.56;80.44
52249;BME280;38541;48.130;8.378;2023-01-28T03:30:17;92987.88;;;-2.58;80.06
52249;BME280;38541;48.130;8.378;2023-01-28T03:33:08;92990.75;;;-2.76;80.25
52249;BME280;38541;48.130;8.378;2023-01-28T03:35:53;92997.16;;;-2.72;81.10
52249;BME280;38541;48.130;8.378;2023-01-28T03:38:43;92991.09;;;-2.79;80.56
52249;BME280;38541;48.130;8.378;2023-01-28T03:41:24;92990.13;;;-2.78;80.61
52249;BME280;38541;48.130;8.378;2023-01-28T03:43:53;92990.75;;;-2.76;80.97
52249;BME280;38541;48.130;8.378;2023-01-28T03:46:20;92995.22;;;-2.70;81.08
52249;BME280;38541;48.130;8.378;2023-01-28T03:48:47;92995.94;;;-2.61;81.10
52249;BME280;38541;48.130;8.378;2023-01-28T03:51:14;92995.84;;;-2.53;80.79
52249;BME280;38541;48.130;8.378;2023-01-28T03:53:41;93000.88;;;-2.60;80.57
52249;BME280;38541;48.130;8.378;2023-01-28T03:56:09;93003.69;;;-2.84;80.32
52249;BME280;38541;48.130;8.378;2023-01-28T03:58:43;92991.94;;;-2.87;81.51
52249;BME280;38541;48.130;8.378;2023-01-28T04:01:19;92995.88;;;-2.76;81.76
52249;BME280;38541;48.130;8.378;2023-01-28T04:03:46;92994.53;;;-2.87;81.22
52249;BME280;38541;48.130;8.378;2023-01-28T04:06:17;92992.50;;;-2.92;81.33
52249;BME280;38541;48.130;8.378;2023-01-28T04:09:04;93002.78;;;-2.92;81.57
52249;BME280;38541;48.130;8.378;2023-01-28T04:11:39;93000.41;;;-2.78;81.89
52249;BME280;38541;48.130;8.378;2023-01-28T04:14:07;92995.88;;;-2.76;81.18
52249;BME280;38541;48.130;8.378;2023-01-28T04:16:48;93001.72;;;-2.82;80.86
52249;BME280;38541;48.130;8.378;2023-01-28T04:19:15;93002.09;;;-2.70;81.48
52249;BME280;38541;48.130;8.378;2023-01-28T04:21:43;93010.91;;;-2.65;80.83
52249;BME280;38541;48.130;8.378;2023-01-28T04:24:09;93005.13;;;-2.67;80.85
52249;BME280;38541;48.130;8.378;2023-01-28T04:26:37;93009.56;;;-2.61;81.00
52249;BME280;38541;48.130;8.378;2023-01-28T04:29:04;93007.00;;;-2.61;80.71
52249;BME280;38541;48.130;8.378;2023-01-28T04:31:33;93003.91;;;-2.56;80.77
52249;BME280;38541;48.130;8.378;2023-01-28T04:34:30;93007.31;;;-2.55;80.36
52249;BME280;38541;48.130;8.378;2023-01-28T04:37:12;93010.81;;;-2.56;80.40
52249;BME280;38541;48.130;8.378;2023-01-28T04:39:59;93013.22;;;-2.55;80.50
52249;BME280;38541;48.130;8.378;2023-01-28T04:42:55;93017.66;;;-2.49;80.63
52249;BME280;38541;48.130;8.378;2023-01-28T04:45:48;93019.25;;;-2.48;80.33
52249;BME280;38541;48.130;8.378;2023-01-28T04:48:32;93020.06;;;-2.47;80.52
52249;BME280;38541;48.130;8.378;2023-01-28T04:51:30;93027.44;;;-2.44;80.22
52249;BME280;38541;48.130;8.378;2023-01-28T04:54:18;93026.81;;;-2.46;79.86
52249;BME280;38541;48.130;8.378;2023-01-28T04:56:44;93019.25;;;-2.48;80.25
52249;BME280;38541;48.130;8.378;2023-01-28T04:59:11;93036.47;;;-2.48;80.04
52249;BME280;38541;48.130;8.378;2023-01-28T05:01:37;93034.38;;;-2.45;80.12
52249;BME280;38541;48.130;8.378;2023-01-28T05:04:04;93035.78;;;-2.42;80.06
52249;BME280;38541;48.130;8.378;2023-01-28T05:06:35;93041.91;;;-2.43;79.94
52249;BME280;38541;48.130;8.378;2023-01-28T05:09:07;93035.50;;;-2.47;79.85
52249;BME280;38541;48.130;8.378;2023-01-28T05:11:34;93036.28;;;-2.47;80.01
52249;BME280;38541;48.130;8.378;2023-01-28T05:14:03;93046.06;;;-2.42;80.13
52249;BME280;38541;48.130;8.378;2023-01-28T05:16:38;93036.41;;;-2.40;79.90
52249;BME280;38541;48.130;8.378;2023-01-28T05:19:05;93046.94;;;-2.50;80.28
52249;BME280;38541;48.130;8.378;2023-01-28T05:21:37;93050.59;;;-2.44;80.58
52249;BME280;38541;48.130;8.378;2023-01-28T05:24:08;93043.59;;;-2.50;80.44
52249;BME280;38541;48.130;8.378;2023-01-28T05:26:35;93050.13;;;-2.48;80.20
52249;BME280;38541;48.130;8.378;2023-01-28T05:29:04;93057.59;;;-2.38;80.09
52249;BME280;38541;48.130;8.378;2023-01-28T05:31:31;93047.97;;;-2.36;79.98
52249;BME280;38541;48.130;8.378;2023-01-28T05:33:58;93050.84;;;-2.39;79.85
52249;BME280;38541;48.130;8.378;2023-01-28T05:36:25;93047.66;;;-2.41;79.67
52249;BME280;38541;48.130;8.378;2023-01-28T05:38:53;93046.59;;;-2.47;79.81
52249;BME280;38541;48.130;8.378;2023-01-28T05:41:20;93052.53;;;-2.46;79.95
52249;BME280;38541;48.130;8.378;2023-01-28T05:43:53;93055.47;;;-2.49;79.38
52249;BME280;38541;48.130;8.378;2023-01-28T05:46:52;93051.72;;;-2.47;79.78
52249;BME280;38541;48.130;8.378;2023-01-28T05:49:42;93053.91;;;-2.59;79.55
52249;BME280;38541;48.130;8.378;2023-01-28T05:52:23;93052.31;;;-2.60;80.19
52249;BME280;38541;48.130;8.378;2023-01-28T05:54:50;93050.66;;;-2.52;80.08
52249;BME280;38541;48.130;8.378;2023-01-28T05:57:16;93059.88;;;-2.58;79.17
52249;BME280;38541;48.130;8.378;2023-01-28T05:59:43;93064.91;;;-2.65;79.33
52249;BME280;38541;48.130;8.378;2023-01-28T06:02:10;93057.34;;;-2.66;80.17
52249;BME280;38541;48.130;8.378;2023-01-28T06:04:37;93063.22;;;-2.58;80.36
52249;BME280;38541;48.130;8.378;2023-01-28T06:07:04;93065.13;;;-2.51;80.10
52249;BME280;38541;48.130;8.378;2023-01-28T06:09:31;93066.38;;;-2.47;80.47
52249;BME280;38541;48.130;8.378;2023-01-28T06:11:57;93078.88;;;-2.44;79.89
52249;BME280;38541;48.130;8.378;2023-01-28T06:14:32;93076.66;;;-2.47;80.11
52249;BME280;38541;48.130;8.378;2023-01-28T06:17:12;93077.66;;;-2.48;80.00
52249;BME280;38541;48.130;8.378;2023-01-28T06:19:46;93083.41;;;-2.46;80.10
52249;BME280;38541;48.130;8.378;2023-01-28T06:22:12;93095.31;;;-2.45;79.82
52249;BME280;38541;48.130;8.378;2023-01-28T06:24:39;93084.53;;;-2.49;79.61
52249;BME280;38541;48.130;8.378;2023-01-28T06:27:06;93102.91;;;-2.52;79.75
52249;BME280;38541;48.130;8.378;2023-01-28T06:29:32;93097.03;;;-2.61;79.00
52249;BME280;38541;48.130;8.378;2023-01-28T06:31:59;93095.06;;;-2.59;78.75
52249;BME280;38541;48.130;8.378;2023-01-28T06:34:25;93099.31;;;-2.66;78.67
52249;BME280;38541;48.130;8.378;2023-01-28T06:36:52;93095.69;;;-2.56;78.58
52249;BME280;38541;48.130;8.378;2023-01-28T06:39:20;93094.06;;;-2.49;78.81
52249;BME280;38541;48.130;8.378;2023-01-28T06:41:48;93093.59;;;-2.53;77.82
52249;BME280;38541;48.130;8.378;2023-01-28T06:44:15;93099.47;;;-2.67;78.09
52249;BME280;38541;48.130;8.378;2023-01-28T06:46:41;93111.78;;;-2.54;78.46
52249;BME280;38541;48.130;8.378;2023-01-28T06:49:08;93110.91;;;-2.47;78.12
52249;BME280;38541;48.130;8.378;2023-01-28T06:51:34;93115.19;;;-2.39;78.27
52249;BME280;38541;48.130;8.378;2023-01-28T06:54:01;93105.94;;;-2.48;77.50
52249;BME280;38541;48.130;8.378;2023-01-28T06:56:28;93114.91;;;-2.44;78.09
52249;BME280;38541;48.130;8.378;2023-01-28T06:58:54;93113.47;;;-2.47;77.83
52249;BME280;38541;48.130;8.378;2023-01-28T07:01:20;93112.91;;;-2.57;77.36
52249;BME280;38541;48.130;8.378;2023-01-28T07:03:47;93113.38;;;-2.53;78.34
52249;BME280;38541;48.130;8.378;2023-01-28T07:06:13;93121.91;;;-2.38;78.32
52249;BME280;38541;48.130;8.378;2023-01-28T07:08:40;93120.78;;;-2.35;77.76
52249;BME280;38541;48.130;8.378;2023-01-28T07:11:07;93124.81;;;-2.33;77.94
52249;BME280;38541;48.130;8.378;2023-01-28T07:13:33;93128.00;;;-2.31;77.55
52249;BME280;38541;48.130;8.378;2023-01-28T07:16:00;93128.34;;;-2.34;77.75
52249;BME280;38541;48.130;8.378;2023-01-28T07:18:26;93128.63;;;-2.28;77.88
52249;BME280;38541;48.130;8.378;2023-01-28T07:20:53;93129.78;;;-2.54;77.19
52249;BME280;38541;48.130;8.378;2023-01-28T07:23:19;93131.66;;;-2.48;78.34
52249;BME280;38541;48.130;8.378;2023-01-28T07:25:46;93137.34;;;-2.38;77.83
52249;BME280;38541;48.130;8.378;2023-01-28T07:28:13;93131.69;;;-2.33;77.75
52249;BME280;38541;48.130;8.378;2023-01-28T07:30:49;93137.94;;;-2.27;77.80
52249;BME280;38541;48.130;8.378;2023-01-28T07:33:19;93138.34;;;-2.39;77.55
52249;BME280;38541;48.130;8.378;2023-01-28T07:35:46;93137.31;;;-2.30;78.40
52249;BME280;38541;48.130;8.378;2023-01-28T07:38:13;93136.00;;;-2.25;77.90
52249;BME280;38541;48.130;8.378;2023-01-28T07:40:39;93136.44;;;-2.22;78.01
52249;BME280;38541;48.130;8.378;2023-01-28T07:43:08;93139.81;;;-2.21;78.15
52249;BME280;38541;48.130;8.378;2023-01-28T07:45:37;93142.72;;;-2.24;77.95
52249;BME280;38541;48.130;8.378;2023-01-28T07:48:06;93146.91;;;-2.23;78.23
52249;BME280;38541;48.130;8.378;2023-01-28T07:50:35;93146.75;;;-2.22;78.04
52249;BME280;38541;48.130;8.378;2023-01-28T07:53:07;93153.75;;;-2.16;78.10
52249;BME280;38541;48.130;8.378;2023-01-28T07:55:34;93145.69;;;-2.12;77.94
52249;BME280;38541;48.130;8.378;2023-01-28T07:58:04;93152.91;;;-2.08;78.29
52249;BME280;38541;48.130;8.378;2023-01-28T08:00:33;93156.72;;;-2.04;77.98
52249;BME280;38541;48.130;8.378;2023-01-28T08:03:11;93152.75;;;-2.06;77.65
52249;BME280;38541;48.130;8.378;2023-01-28T08:05:42;93152.75;;;-2.06;77.69
52249;BME280;38541;48.130;8.378;2023-01-28T08:08:10;93155.56;;;-2.16;77.38
52249;BME280;38541;48.130;8.378;2023-01-28T08:10:37;93166.75;;;-2.09;78.09
52249;BME280;38541;48.130;8.378;2023-01-28T08:13:04;93162.16;;;-1.98;77.81
52249;BME280;38541;48.130;8.378;2023-01-28T08:15:31;93165.38;;;-1.96;77.46
52249;BME280;38541;48.130;8.378;2023-01-28T08:18:00;93173.00;;;-1.88;77.25
52249;BME280;38541;48.130;8.378;2023-01-28T08:20:28;93182.59;;;-1.82;77.31
52249;BME280;38541;48.130;8.378;2023-01-28T08:23:15;93177.13;;;-1.79;76.63
52249;BME280;38541;48.130;8.378;2023-01-28T08:25:43;93177.75;;;-1.77;76.78
52249;BME280;38541;48.130;8.378;2023-01-28T08:28:10;93179.16;;;-1.74;76.98
52249;BME280;38541;48.130;8.378;2023-01-28T08:30:37;93186.72;;;-1.73;77.19
52249;BME280;38541;48.130;8.378;2023-01-28T08:33:05;93188.94;;;-1.69;76.71
52249;BME280;38541;48.130;8.378;2023-01-28T08:35:32;93191.50;;;-1.69;77.08
52249;BME280;38541;48.130;8.378;2023-01-28T08:38:00;93190.88;;;-1.87;76.59
52249;BME280;38541;48.130;8.378;2023-01-28T08:40:27;93185.47;;;-1.77;76.78
52249;BME280;38541;48.130;8.378;2023-01-28T08:42:53;93189.09;;;-1.71;76.94
52249;BME280;38541;48.130;8.378;2023-01-28T08:45:22;93185.91;;;-1.73;76.58
52249;BME280;38541;48.130;8.378;2023-01-28T08:47:55;93184.41;;;-1.67;77.02
52249;BME280;38541;48.130;8.378;2023-01-28T08:50:23;93180.78;;;-1.58;76.72
52249;BME280;38541;48.130;8.378;2023-01-28T08:52:55;93195.38;;;-1.50;76.64
52249;BME280;38541;48.130;8.378;2023-01-28T08:55:23;93191.00;;;-1.50;76.14
52249;BME280;38541;48.130;8.378;2023-01-28T08:57:50;93195.78;;;-1.47;76.05
52249;BME280;38541;48.130;8.378;2023-01-28T09:00:17;93189.94;;;-1.40;76.33
52249;BME280;38541;48.130;8.378;2023-01-28T09:02:44;93197.69;;;-1.40;75.56
52249;BME280;38541;48.130;8.378;2023-01-28T09:05:11;93203.72;;;-1.48;75.66
52249;BME280;38541;48.130;8.378;2023-01-28T09:07:38;93199.19;;;-1.46;75.77
52249;BME280;38541;48.130;8.378;2023-01-28T09:10:05;93196.16;;;-1.50;75.64
52249;BME280;38541;48.130;8.378;2023-01-28T09:12:31;93200.25;;;-1.40;75.77
52249;BME280;38541;48.130;8.378;2023-01-28T09:14:58;93198.94;;;-1.36;75.61
52249;BME280;38541;48.130;8.378;2023-01-28T09:17:25;93207.38;;;-1.27;75.19
52249;BME280;38541;48.130;8.378;2023-01-28T09:19:51;93204.06;;;-1.36;75.31
52249;BME280;38541;48.130;8.378;2023-01-28T09:22:18;93208.78;;;-1.25;75.10
52249;BME280;38541;48.130;8.378;2023-01-28T09:24:44;93206.66;;;-1.36;74.86
52249;BME280;38541;48.130;8.378;2023-01-28T09:27:11;93212.25;;;-1.18;75.11
52249;BME280;38541;48.130;8.378;2023-01-28T09:29:37;93213.75;;;-1.08;74.83
52249;BME280;38541;48.130;8.378;2023-01-28T09:32:05;93212.88;;;-1.01;74.36
52249;BME280;38541;48.130;8.378;2023-01-28T09:34:32;93215.38;;;-0.92;74.53
52249;BME280;38541;48.130;8.378;2023-01-28T09:36:59;93211.91;;;-0.84;74.50
52249;BME280;38541;48.130;8.378;2023-01-28T09:39:25;93219.69;;;-0.78;73.94
52249;BME280;38541;48.130;8.378;2023-01-28T09:45:30;93221.38;;;-0.70;74.10
52249;BME280;38541;48.130;8.378;2023-01-28T09:47:29;93222.47;;;-0.43;73.71
52249;BME280;38541;48.130;8.378;2023-01-28T09:49:59;93220.00;;;-0.51;73.43
52249;BME280;38541;48.130;8.378;2023-01-28T09:52:29;93223.66;;;-0.60;73.25
52249;BME280;38541;48.130;8.378;2023-01-28T09:55:02;93226.41;;;-0.47;73.66
52249;BME280;38541;48.130;8.378;2023-01-28T09:57:41;93222.84;;;-0.46;72.50
52249;BME280;38541;48.130;8.378;2023-01-28T10:00:14;93232.09;;;-0.36;73.29
52249;BME280;38541;48.130;8.378;2023-01-28T10:03:06;93236.25;;;-0.35;73.02
52249;BME280;38541;48.130;8.378;2023-01-28T10:08:58;93221.88;;;-0.23;72.52
52249;BME280;38541;48.130;8.378;2023-01-28T10:11:53;93231.66;;;-0.18;71.94
52249;BME280;38541;48.130;8.378;2023-01-28T10:19:43;93218.66;;;0.19;71.06
52249;BME280;38541;48.130;8.378;2023-01-28T10:22:18;93220.47;;;0.18;70.45
52249;BME280;38541;48.130;8.378;2023-01-28T10:24:55;93225.75;;;0.32;70.50
52249;BME280;38541;48.130;8.378;2023-01-28T10:27:30;93227.16;;;0.34;70.95
52249;BME280;38541;48.130;8.378;2023-01-28T10:29:59;93223.50;;;0.50;69.63
52249;BME280;38541;48.130;8.378;2023-01-28T10:32:34;93222.75;;;0.56;68.69
52249;BME280;38541;48.130;8.378;2023-01-28T10:35:04;93220.31;;;0.48;69.92
52249;BME280;38541;48.130;8.378;2023-01-28T10:37:33;93219.75;;;0.53;70.66
52249;BME280;38541;48.130;8.378;2023-01-28T10:40:01;93213.91;;;0.73;70.29
52249;BME280;38541;48.130;8.378;2023-01-28T10:42:38;93215.66;;;0.37;69.70
52249;BME280;38541;48.130;8.378;2023-01-28T10:47:40;93214.28;;;0.69;69.52
52249;BME280;38541;48.130;8.378;2023-01-28T10:50:35;93208.69;;;0.66;69.64
52249;BME280;38541;48.130;8.378;2023-01-28T10:53:04;93206.72;;;0.68;70.36
52249;BME280;38541;48.130;8.378;2023-01-28T10:55:43;93202.00;;;0.78;69.17
52249;BME280;38541;48.130;8.378;2023-01-28T10:58:19;93211.09;;;0.67;68.42
52249;BME280;38541;48.130;8.378;2023-01-28T11:00:52;93198.78;;;0.69;69.28
52249;BME280;38541;48.130;8.378;2023-01-28T11:03:20;93206.06;;;0.88;69.44
52249;BME280;38541;48.130;8.378;2023-01-28T11:05:53;93198.78;;;1.05;68.74
52249;BME280;38541;48.130;8.378;2023-01-28T11:08:20;93206.56;;;1.11;68.33
52249;BME280;38541;48.130;8.378;2023-01-28T11:10:48;93205.78;;;1.18;67.74
52249;BME280;38541;48.130;8.378;2023-01-28T11:13:20;93200.19;;;1.07;69.13
52249;BME280;38541;48.130;8.378;2023-01-28T11:15:49;93204.72;;;0.98;68.82
52249;BME280;38541;48.130;8.378;2023-01-28T11:18:29;93199.59;;;1.05;68.77
52249;BME280;38541;48.130;8.378;2023-01-28T11:20:58;93200.03;;;1.22;68.94
52249;BME280;38541;48.130;8.378;2023-01-28T11:23:27;93201.44;;;1.18;67.82
52249;BME280;38541;48.130;8.378;2023-01-28T11:26:04;93194.28;;;1.27;67.60
52249;BME280;38541;48.130;8.378;2023-01-28T11:28:32;93200.88;;;1.36;67.60
52249;BME280;38541;48.130;8.378;2023-01-28T11:31:01;93207.22;;;1.20;67.69
52249;BME280;38541;48.130;8.378;2023-01-28T11:33:36;93209.28;;;0.96;66.82
52249;BME280;38541;48.130;8.378;2023-01-28T11:36:13;93206.06;;;0.88;68.20
52249;BME280;38541;48.130;8.378;2023-01-28T11:39:17;93214.22;;;0.91;68.87
52249;BME280;38541;48.130;8.378;2023-01-28T11:41:46;93215.47;;;1.02;67.96
52249;BME280;38541;48.130;8.378;2023-01-28T11:44:19;93207.97;;;1.14;68.17
52249;BME280;38541;48.130;8.378;2023-01-28T11:50:06;93206.75;;;1.10;68.00
52249;BME280;38541;48.130;8.378;2023-01-28T11:55:54;93213.44;;;0.91;68.15
52249;BME280;38541;48.130;8.378;2023-01-28T11:58:49;93212.25;;;0.58;68.08
52249;BME280;38541;48.130;8.378;2023-01-28T12:01:33;93204.22;;;0.24;70.07
52249;BME280;38541;48.130;8.378;2023-01-28T12:04:24;93210.66;;;0.35;70.16
52249;BME280;38541;48.130;8.378;2023-01-28T12:18:50;93207.00;;;0.23;70.26
52249;BME280;38541;48.130;8.378;2023-01-28T12:27:25;93213.50;;;0.19;71.04
52249;BME280;38541;48.130;8.378;2023-01-28T12:30:15;93209.66;;;0.30;71.42
52249;BME280;38541;48.130;8.378;2023-01-28T12:38:46;93212.97;;;0.52;70.58
52249;BME280;38541;48.130;8.378;2023-01-28T12:41:24;93205.41;;;0.50;69.24
52249;BME280;38541;48.130;8.378;2023-01-28T12:43:59;93216.97;;;0.54;69.42
52249;BME280;38541;48.130;8.378;2023-01-28T12:46:47;93212.59;;;0.55;69.44
52249;BME280;38541;48.130;8.378;2023-01-28T12:49:29;93207.84;;;0.59;70.25
52249;BME280;38541;48.130;8.378;2023-01-28T12:52:04;93208.84;;;0.29;69.69
52249;BME280;38541;48.130;8.378;2023-01-28T12:54:48;93203.66;;;0.29;70.51
52249;BME280;38541;48.130;8.378;2023-01-28T12:57:23;93207.06;;;0.30;70.50
52249;BME280;38541;48.130;8.378;2023-01-28T13:00:02;93209.16;;;0.19;71.65
52249;BME280;38541;48.130;8.378;2023-01-28T13:02:34;93216.81;;;0.34;71.31
52249;BME280;38541;48.130;8.378;2023-01-28T13:07:56;93212.47;;;0.35;70.45
52249;BME280;38541;48.130;8.378;2023-01-28T13:13:05;93215.84;;;0.13;71.39
52249;BME280;38541;48.130;8.378;2023-01-28T13:15:35;93211.50;;;0.14;71.99
52249;BME280;38541;48.130;8.378;2023-01-28T13:18:05;93221.47;;;0.17;72.00
52249;BME280;38541;48.130;8.378;2023-01-28T13:20:38;93216.16;;;0.25;70.81
52249;BME280;38541;48.130;8.378;2023-01-28T13:23:41;93228.28;;;0.25;70.78
52249;BME280;38541;48.130;8.378;2023-01-28T13:28:48;93218.66;;;0.40;70.81
52249;BME280;38541;48.130;8.378;2023-01-28T13:31:18;93226.66;;;0.46;71.02
52249;BME280;38541;48.130;8.378;2023-01-28T13:33:47;93213.16;;;0.22;69.72
52249;BME280;38541;48.130;8.378;2023-01-28T13:44:37;93220.63;;;0.10;71.14
52249;BME280;38541;48.130;8.378;2023-01-28T13:47:26;93212.72;;;0.18;71.06
52249;BME280;38541;48.130;8.378;2023-01-28T13:50:02;93220.97;;;0.28;70.69
52249;BME280;38541;48.130;8.378;2023-01-28T13:52:35;93217.75;;;0.26;71.24
52249;BME280;38541;48.130;8.378;2023-01-28T13:55:16;93224.47;;;0.21;70.97
52249;BME280;38541;48.130;8.378;2023-01-28T14:06:58;93229.84;;;-0.03;71.24
52249;BME280;38541;48.130;8.378;2023-01-28T14:12:44;93224.78;;;0.11;71.08
52249;BME280;38541;48.130;8.378;2023-01-28T14:17:58;93230.88;;;0.03;71.89
52249;BME280;38541;48.130;8.378;2023-01-28T14:20:29;93238.44;;;0.05;72.00
52249;BME280;38541;48.130;8.378;2023-01-28T14:23:17;93237.28;;;0.07;72.17
52249;BME280;38541;48.130;8.378;2023-01-28T14:31:18;93250.50;;;-0.03;71.02
52249;BME280;38541;48.130;8.378;2023-01-28T14:33:50;93247.91;;;-0.03;71.45
52249;BME280;38541;48.130;8.378;2023-01-28T14:36:17;93250.28;;;-0.01;71.46
52249;BME280;38541;48.130;8.378;2023-01-28T14:38:44;93262.53;;;-0.10;71.53
52249;BME280;38541;48.130;8.378;2023-01-28T14:41:22;93257.25;;;-0.23;70.51
52249;BME280;38541;48.130;8.378;2023-01-28T14:43:53;93261.97;;;-0.27;72.81
52249;BME280;38541;48.130;8.378;2023-01-28T14:49:11;93277.28;;;-0.25;72.53
52249;BME280;38541;48.130;8.378;2023-01-28T14:54:55;93266.75;;;-0.24;72.07
52249;BME280;38541;48.130;8.378;2023-01-28T14:59:58;93268.19;;;-0.21;72.15
52249;BME280;38541;48.130;8.378;2023-01-28T15:02:29;93272.38;;;-0.20;72.37
52249;BME280;38541;48.130;8.378;2023-01-28T15:05:14;93280.28;;;-0.22;71.86
52249;BME280;38541;48.130;8.378;2023-01-28T15:07:46;93279.75;;;-0.17;72.64
52249;BME280;38541;48.130;8.378;2023-01-28T15:10:34;93280.44;;;-0.08;72.27
52249;BME280;38541;48.130;8.378;2023-01-28T15:13:08;93284.28;;;-0.19;73.00